sensor_id;sensor_type;location;lat;lon;timestamp;P1;durP1;ratioP1;P2;durP2;ratioP2
36415;SDS011;22447;44.530;18.620;2023-01-04T00:01:34;357.73;;;176.63;;
36415;SDS011;22447;44.530;18.620;2023-01-04T00:04:03;408.00;;;205.73;;
36415;SDS011;22447;44.530;18.620;2023-01-04T00:06:55;384.95;;;186.57;;
36415;SDS011;22447;44.530;18.620;2023-01-04T00:09:29;393.45;;;189.00;;
36415;SDS011;22447;44.530;18.620;2023-01-04T00:15:58;381.35;;;185.15;;
36415;SDS011;22447;44.530;18.620;2023-01-04T00:18:34;385.02;;;193.02;;
36415;SDS011;22447;44.530;18.620;2023-01-04T00:21:14;400.27;;;196.52;;
36415;SDS011;22447;44.530;18.620;2023-01-04T00:23:52;412.33;;;205.57;;
36415;SDS011;22447;44.530;18.620;2023-01-04T00:26:24;403.88;;;196.57;;
36415;SDS011;22447;44.530;18.620;2023-01-04T00:29:17;414.80;;;199.18;;
36415;SDS011;22447;44.530;18.620;2023-01-04T00:36:04;383.10;;;187.90;;
36415;SDS011;22447;44.530;18.620;2023-01-04T00:39:58;399.58;;;198.27;;
36415;SDS011;22447;44.530;18.620;2023-01-04T00:49:41;418.77;;;198.30;;
36415;SDS011;22447;44.530;18.620;2023-01-04T00:59:35;455.90;;;221.75;;
36415;SDS011;22447;44.530;18.620;2023-01-04T01:02:35;437.45;;;210.73;;
36415;SDS011;22447;44.530;18.620;2023-01-04T01:05:03;470.52;;;224.57;;
36415;SDS011;22447;44.530;18.620;2023-01-04T01:07:34;517.90;;;244.27;;
36415;SDS011;22447;44.530;18.620;2023-01-04T01:10:03;696.35;;;315.35;;
36415;SDS011;22447;44.530;18.620;2023-01-04T01:12:32;514.67;;;249.32;;
36415;SDS011;22447;44.530;18.620;2023-01-04T01:15:02;452.63;;;215.32;;
36415;SDS011;22447;44.530;18.620;2023-01-04T01:17:30;504.33;;;238.98;;
36415;SDS011;22447;44.530;18.620;2023-01-04T01:20:09;468.27;;;222.88;;
36415;SDS011;22447;44.530;18.620;2023-01-04T01:23:12;414.27;;;204.30;;
36415;SDS011;22447;44.530;18.620;2023-01-04T01:29:05;507.77;;;254.77;;
36415;SDS011;22447;44.530;18.620;2023-01-04T01:31:41;520.78;;;262.83;;
36415;SDS011;22447;44.530;18.620;2023-01-04T01:34:11;478.98;;;234.05;;
36415;SDS011;22447;44.530;18.620;2023-01-04T01:36:38;433.08;;;223.52;;
36415;SDS011;22447;44.530;18.620;2023-01-04T01:39:15;436.20;;;223.60;;
36415;SDS011;22447;44.530;18.620;2023-01-04T01:41:50;421.23;;;208.07;;
36415;SDS011;22447;44.530;18.620;2023-01-04T01:52:38;433.45;;;211.20;;
36415;SDS011;22447;44.530;18.620;2023-01-04T02:05:39;453.92;;;226.40;;
36415;SDS011;22447;44.530;18.620;2023-01-04T02:08:08;470.98;;;234.57;;
36415;SDS011;22447;44.530;18.620;2023-01-04T02:10:52;411.88;;;208.13;;
36415;SDS011;22447;44.530;18.620;2023-01-04T02:18:00;430.85;;;199.07;;
36415;SDS011;22447;44.530;18.620;2023-01-04T02:37:16;437.48;;;212.95;;
36415;SDS011;22447;44.530;18.620;2023-01-04T02:42:59;489.70;;;231.75;;
36415;SDS011;22447;44.530;18.620;2023-01-04T02:46:56;467.85;;;217.98;;
36415;SDS011;22447;44.530;18.620;2023-01-04T02:49:40;462.23;;;225.82;;
36415;SDS011;22447;44.530;18.620;2023-01-04T02:52:27;431.88;;;212.15;;
36415;SDS011;22447;44.530;18.620;2023-01-04T02:55:00;418.00;;;206.48;;
36415;SDS011;22447;44.530;18.620;2023-01-04T03:09:27;438.90;;;212.50;;
36415;SDS011;22447;44.530;18.620;2023-01-04T03:12:03;451.15;;;215.35;;
36415;SDS011;22447;44.530;18.620;2023-01-04T03:15:15;439.70;;;213.10;;
36415;SDS011;22447;44.530;18.620;2023-01-04T03:21:43;427.30;;;202.77;;
36415;SDS011;22447;44.530;18.620;2023-01-04T03:24:17;426.40;;;203.18;;
36415;SDS011;22447;44.530;18.620;2023-01-04T03:27:10;446.08;;;215.05;;
36415;SDS011;22447;44.530;18.620;2023-01-04T03:30:27;408.08;;;198.25;;
36415;SDS011;22447;44.530;18.620;2023-01-04T03:33:37;390.50;;;189.30;;
36415;SDS011;22447;44.530;18.620;2023-01-04T03:36:41;388.30;;;186.98;;
36415;SDS011;22447;44.530;18.620;2023-01-04T03:51:40;380.70;;;183.63;;
36415;SDS011;22447;44.530;18.620;2023-01-04T04:00:32;331.67;;;163.10;;
36415;SDS011;22447;44.530;18.620;2023-01-04T04:03:05;318.30;;;156.23;;
36415;SDS011;22447;44.530;18.620;2023-01-04T04:05:39;331.95;;;168.57;;
36415;SDS011;22447;44.530;18.620;2023-01-04T04:08:43;308.48;;;151.48;;
36415;SDS011;22447;44.530;18.620;2023-01-04T04:11:17;325.98;;;158.10;;
36415;SDS011;22447;44.530;18.620;2023-01-04T04:15:14;358.77;;;173.30;;
36415;SDS011;22447;44.530;18.620;2023-01-04T04:30:13;345.42;;;164.57;;
36415;SDS011;22447;44.530;18.620;2023-01-04T04:33:01;335.92;;;165.75;;
36415;SDS011;22447;44.530;18.620;2023-01-04T04:35:30;339.42;;;170.57;;
36415;SDS011;22447;44.530;18.620;2023-01-04T04:48:54;429.40;;;209.40;;
36415;SDS011;22447;44.530;18.620;2023-01-04T04:58:50;362.20;;;179.75;;
36415;SDS011;22447;44.530;18.620;2023-01-04T05:01:22;331.67;;;169.15;;
36415;SDS011;22447;44.530;18.620;2023-01-04T05:03:55;343.15;;;176.25;;
36415;SDS011;22447;44.530;18.620;2023-01-04T05:09:39;479.80;;;244.05;;
36415;SDS011;22447;44.530;18.620;2023-01-04T05:12:57;445.15;;;228.85;;
36415;SDS011;22447;44.530;18.620;2023-01-04T05:19:06;427.85;;;216.82;;
36415;SDS011;22447;44.530;18.620;2023-01-04T05:28:26;313.73;;;151.38;;
36415;SDS011;22447;44.530;18.620;2023-01-04T05:33:58;330.38;;;156.77;;
36415;SDS011;22447;44.530;18.620;2023-01-04T05:37:49;338.48;;;164.10;;
36415;SDS011;22447;44.530;18.620;2023-01-04T05:40:27;330.02;;;161.93;;
36415;SDS011;22447;44.530;18.620;2023-01-04T05:43:17;429.27;;;196.83;;
36415;SDS011;22447;44.530;18.620;2023-01-04T05:52:27;379.30;;;184.48;;
36415;SDS011;22447;44.530;18.620;2023-01-04T05:55:02;384.98;;;194.93;;
36415;SDS011;22447;44.530;18.620;2023-01-04T05:57:31;384.67;;;193.07;;
36415;SDS011;22447;44.530;18.620;2023-01-04T06:09:55;440.30;;;207.75;;
36415;SDS011;22447;44.530;18.620;2023-01-04T06:12:22;418.13;;;204.52;;
36415;SDS011;22447;44.530;18.620;2023-01-04T06:14:53;456.13;;;225.32;;
36415;SDS011;22447;44.530;18.620;2023-01-04T06:17:21;349.73;;;170.05;;
36415;SDS011;22447;44.530;18.620;2023-01-04T06:19:57;343.23;;;166.60;;
36415;SDS011;22447;44.530;18.620;2023-01-04T06:22:28;347.85;;;166.65;;
36415;SDS011;22447;44.530;18.620;2023-01-04T06:24:58;345.98;;;168.95;;
36415;SDS011;22447;44.530;18.620;2023-01-04T06:27:26;357.17;;;174.75;;
36415;SDS011;22447;44.530;18.620;2023-01-04T06:29:58;362.58;;;179.38;;
36415;SDS011;22447;44.530;18.620;2023-01-04T06:32:37;366.67;;;177.77;;
36415;SDS011;22447;44.530;18.620;2023-01-04T06:35:54;350.63;;;170.93;;
36415;SDS011;22447;44.530;18.620;2023-01-04T06:41:28;329.42;;;164.00;;
36415;SDS011;22447;44.530;18.620;2023-01-04T06:44:16;333.70;;;169.52;;
36415;SDS011;22447;44.530;18.620;2023-01-04T06:46:42;376.23;;;196.32;;
36415;SDS011;22447;44.530;18.620;2023-01-04T06:59:25;350.25;;;170.55;;
36415;SDS011;22447;44.530;18.620;2023-01-04T07:05:47;357.35;;;178.30;;
36415;SDS011;22447;44.530;18.620;2023-01-04T07:08:17;373.45;;;187.63;;
36415;SDS011;22447;44.530;18.620;2023-01-04T07:10:49;357.50;;;177.27;;
36415;SDS011;22447;44.530;18.620;2023-01-04T07:23:21;436.55;;;210.35;;
36415;SDS011;22447;44.530;18.620;2023-01-04T07:25:59;389.63;;;200.15;;
36415;SDS011;22447;44.530;18.620;2023-01-04T07:28:32;363.65;;;190.18;;
36415;SDS011;22447;44.530;18.620;2023-01-04T07:34:56;406.23;;;180.50;;
36415;SDS011;22447;44.530;18.620;2023-01-04T07:37:44;373.25;;;177.15;;
36415;SDS011;22447;44.530;18.620;2023-01-04T07:40:16;351.00;;;177.55;;
36415;SDS011;22447;44.530;18.620;2023-01-04T07:49:46;337.15;;;165.23;;
36415;SDS011;22447;44.530;18.620;2023-01-04T07:52:15;337.05;;;166.68;;
36415;SDS011;22447;44.530;18.620;2023-01-04T07:54:46;333.35;;;167.82;;
36415;SDS011;22447;44.530;18.620;2023-01-04T07:57:19;310.10;;;154.35;;
36415;SDS011;22447;44.530;18.620;2023-01-04T07:59:47;317.90;;;159.05;;
36415;SDS011;22447;44.530;18.620;2023-01-04T08:02:20;312.80;;;155.30;;
36415;SDS011;22447;44.530;18.620;2023-01-04T08:04:50;268.85;;;133.80;;
36415;SDS011;22447;44.530;18.620;2023-01-04T08:14:50;292.48;;;142.23;;
36415;SDS011;22447;44.530;18.620;2023-01-04T08:17:22;324.95;;;161.13;;
36415;SDS011;22447;44.530;18.620;2023-01-04T08:23:43;550.08;;;247.63;;
36415;SDS011;22447;44.530;18.620;2023-01-04T08:26:11;601.20;;;282.67;;
36415;SDS011;22447;44.530;18.620;2023-01-04T08:28:41;575.05;;;270.02;;
36415;SDS011;22447;44.530;18.620;2023-01-04T08:31:20;579.50;;;270.85;;
36415;SDS011;22447;44.530;18.620;2023-01-04T08:34:01;545.72;;;255.40;;
36415;SDS011;22447;44.530;18.620;2023-01-04T08:36:32;519.60;;;249.68;;
36415;SDS011;22447;44.530;18.620;2023-01-04T08:39:11;502.52;;;240.95;;
36415;SDS011;22447;44.530;18.620;2023-01-04T08:41:40;435.98;;;216.25;;
36415;SDS011;22447;44.530;18.620;2023-01-04T08:48:15;291.55;;;150.98;;
36415;SDS011;22447;44.530;18.620;2023-01-04T08:58:34;341.90;;;169.50;;
36415;SDS011;22447;44.530;18.620;2023-01-04T09:02:22;335.45;;;176.55;;
36415;SDS011;22447;44.530;18.620;2023-01-04T09:05:24;350.30;;;179.57;;
36415;SDS011;22447;44.530;18.620;2023-01-04T09:07:51;358.65;;;186.23;;
36415;SDS011;22447;44.530;18.620;2023-01-04T09:10:18;355.98;;;177.13;;
36415;SDS011;22447;44.530;18.620;2023-01-04T09:13:05;347.40;;;182.75;;
36415;SDS011;22447;44.530;18.620;2023-01-04T09:15:36;327.33;;;172.55;;
36415;SDS011;22447;44.530;18.620;2023-01-04T09:18:08;279.50;;;152.38;;
36415;SDS011;22447;44.530;18.620;2023-01-04T09:20:40;264.08;;;146.93;;
36415;SDS011;22447;44.530;18.620;2023-01-04T09:23:10;275.33;;;151.43;;
36415;SDS011;22447;44.530;18.620;2023-01-04T09:28:40;242.35;;;130.18;;
36415;SDS011;22447;44.530;18.620;2023-01-04T09:31:08;234.77;;;127.90;;
36415;SDS011;22447;44.530;18.620;2023-01-04T09:33:42;231.07;;;125.18;;
36415;SDS011;22447;44.530;18.620;2023-01-04T09:36:15;237.70;;;127.45;;
36415;SDS011;22447;44.530;18.620;2023-01-04T09:45:15;294.75;;;154.05;;
36415;SDS011;22447;44.530;18.620;2023-01-04T09:50:44;355.25;;;177.48;;
36415;SDS011;22447;44.530;18.620;2023-01-04T09:53:30;324.35;;;161.63;;
36415;SDS011;22447;44.530;18.620;2023-01-04T09:56:19;291.45;;;147.65;;
36415;SDS011;22447;44.530;18.620;2023-01-04T09:59:00;298.73;;;142.88;;
36415;SDS011;22447;44.530;18.620;2023-01-04T10:01:40;237.30;;;122.25;;
36415;SDS011;22447;44.530;18.620;2023-01-04T10:05:14;193.18;;;105.07;;
36415;SDS011;22447;44.530;18.620;2023-01-04T10:07:16;177.23;;;93.95;;
36415;SDS011;22447;44.530;18.620;2023-01-04T10:09:50;168.15;;;87.50;;
36415;SDS011;22447;44.530;18.620;2023-01-04T10:26:41;279.90;;;117.22;;
36415;SDS011;22447;44.530;18.620;2023-01-04T10:35:16;208.73;;;95.68;;
36415;SDS011;22447;44.530;18.620;2023-01-04T10:37:51;183.18;;;86.85;;
36415;SDS011;22447;44.530;18.620;2023-01-04T10:40:24;171.50;;;86.43;;
36415;SDS011;22447;44.530;18.620;2023-01-04T10:43:01;144.18;;;71.43;;
36415;SDS011;22447;44.530;18.620;2023-01-04T10:45:31;152.38;;;78.53;;
36415;SDS011;22447;44.530;18.620;2023-01-04T10:48:31;150.65;;;78.60;;
36415;SDS011;22447;44.530;18.620;2023-01-04T10:51:06;155.40;;;78.95;;
36415;SDS011;22447;44.530;18.620;2023-01-04T10:53:35;166.13;;;82.13;;
36415;SDS011;22447;44.530;18.620;2023-01-04T10:58:52;129.73;;;69.38;;
36415;SDS011;22447;44.530;18.620;2023-01-04T11:01:32;146.80;;;72.70;;
36415;SDS011;22447;44.530;18.620;2023-01-04T11:04:08;154.90;;;73.57;;
36415;SDS011;22447;44.530;18.620;2023-01-04T11:06:45;146.43;;;68.72;;
36415;SDS011;22447;44.530;18.620;2023-01-04T11:09:21;125.90;;;64.22;;
36415;SDS011;22447;44.530;18.620;2023-01-04T11:11:48;142.38;;;72.25;;
36415;SDS011;22447;44.530;18.620;2023-01-04T11:14:15;126.03;;;61.65;;
36415;SDS011;22447;44.530;18.620;2023-01-04T11:16:43;130.10;;;62.13;;
36415;SDS011;22447;44.530;18.620;2023-01-04T11:21:40;113.75;;;59.33;;
36415;SDS011;22447;44.530;18.620;2023-01-04T11:24:16;181.70;;;82.63;;
36415;SDS011;22447;44.530;18.620;2023-01-04T11:26:43;128.30;;;64.75;;
36415;SDS011;22447;44.530;18.620;2023-01-04T11:29:33;112.32;;;58.45;;
36415;SDS011;22447;44.530;18.620;2023-01-04T11:35:03;117.45;;;59.75;;
36415;SDS011;22447;44.530;18.620;2023-01-04T11:37:31;99.78;;;56.13;;
36415;SDS011;22447;44.530;18.620;2023-01-04T11:40:23;101.55;;;56.35;;
36415;SDS011;22447;44.530;18.620;2023-01-04T11:42:52;113.15;;;57.08;;
36415;SDS011;22447;44.530;18.620;2023-01-04T11:45:36;108.47;;;57.35;;
36415;SDS011;22447;44.530;18.620;2023-01-04T11:48:02;117.30;;;57.92;;
36415;SDS011;22447;44.530;18.620;2023-01-04T11:50:33;102.65;;;57.13;;
36415;SDS011;22447;44.530;18.620;2023-01-04T11:53:00;110.63;;;57.22;;
36415;SDS011;22447;44.530;18.620;2023-01-04T11:55:28;115.35;;;57.47;;
36415;SDS011;22447;44.530;18.620;2023-01-04T12:00:53;96.47;;;52.58;;
36415;SDS011;22447;44.530;18.620;2023-01-04T12:03:30;103.47;;;53.65;;
36415;SDS011;22447;44.530;18.620;2023-01-04T12:06:06;123.13;;;56.33;;
36415;SDS011;22447;44.530;18.620;2023-01-04T12:08:55;103.97;;;56.30;;
36415;SDS011;22447;44.530;18.620;2023-01-04T12:11:33;124.68;;;63.97;;
36415;SDS011;22447;44.530;18.620;2023-01-04T12:14:01;123.18;;;66.40;;
36415;SDS011;22447;44.530;18.620;2023-01-04T12:19:18;143.50;;;78.47;;
36415;SDS011;22447;44.530;18.620;2023-01-04T12:21:47;141.98;;;71.38;;
36415;SDS011;22447;44.530;18.620;2023-01-04T12:24:23;122.40;;;65.00;;
36415;SDS011;22447;44.530;18.620;2023-01-04T12:26:53;131.95;;;71.75;;
36415;SDS011;22447;44.530;18.620;2023-01-04T12:31:49;127.57;;;65.57;;
36415;SDS011;22447;44.530;18.620;2023-01-04T12:47:07;100.72;;;50.33;;
36415;SDS011;22447;44.530;18.620;2023-01-04T12:51:15;109.50;;;50.75;;
36415;SDS011;22447;44.530;18.620;2023-01-04T12:53:54;105.30;;;49.00;;
36415;SDS011;22447;44.530;18.620;2023-01-04T12:56:22;92.03;;;47.00;;
36415;SDS011;22447;44.530;18.620;2023-01-04T12:59:31;81.35;;;40.47;;
36415;SDS011;22447;44.530;18.620;2023-01-04T13:04:48;86.57;;;40.38;;
36415;SDS011;22447;44.530;18.620;2023-01-04T13:07:18;81.05;;;41.03;;
36415;SDS011;22447;44.530;18.620;2023-01-04T13:10:19;71.40;;;39.50;;
36415;SDS011;22447;44.530;18.620;2023-01-04T13:18:49;72.70;;;35.25;;
36415;SDS011;22447;44.530;18.620;2023-01-04T13:21:28;70.88;;;35.78;;
36415;SDS011;22447;44.530;18.620;2023-01-04T13:24:01;91.65;;;40.30;;
36415;SDS011;22447;44.530;18.620;2023-01-04T13:26:43;85.90;;;39.65;;
36415;SDS011;22447;44.530;18.620;2023-01-04T13:29:13;53.05;;;27.40;;
36415;SDS011;22447;44.530;18.620;2023-01-04T13:31:48;62.92;;;30.92;;
36415;SDS011;22447;44.530;18.620;2023-01-04T13:39:50;46.05;;;24.67;;
36415;SDS011;22447;44.530;18.620;2023-01-04T13:42:31;51.08;;;26.10;;
36415;SDS011;22447;44.530;18.620;2023-01-04T13:47:51;64.30;;;28.83;;
36415;SDS011;22447;44.530;18.620;2023-01-04T13:53:24;92.60;;;41.15;;
36415;SDS011;22447;44.530;18.620;2023-01-04T13:55:52;57.42;;;31.58;;
36415;SDS011;22447;44.530;18.620;2023-01-04T13:58:24;68.30;;;37.13;;
36415;SDS011;22447;44.530;18.620;2023-01-04T14:03:34;72.40;;;37.38;;
36415;SDS011;22447;44.530;18.620;2023-01-04T14:08:38;61.63;;;34.20;;
36415;SDS011;22447;44.530;18.620;2023-01-04T14:11:16;59.88;;;30.65;;
36415;SDS011;22447;44.530;18.620;2023-01-04T14:24:50;75.45;;;38.40;;
36415;SDS011;22447;44.530;18.620;2023-01-04T14:27:31;95.55;;;39.90;;
36415;SDS011;22447;44.530;18.620;2023-01-04T14:29:58;85.53;;;40.67;;
36415;SDS011;22447;44.530;18.620;2023-01-04T14:35:23;81.22;;;37.25;;
36415;SDS011;22447;44.530;18.620;2023-01-04T14:37:50;85.97;;;39.25;;
36415;SDS011;22447;44.530;18.620;2023-01-04T14:40:26;87.53;;;38.63;;
36415;SDS011;22447;44.530;18.620;2023-01-04T14:42:55;79.97;;;41.88;;
36415;SDS011;22447;44.530;18.620;2023-01-04T14:45:21;68.80;;;35.90;;
36415;SDS011;22447;44.530;18.620;2023-01-04T14:47:48;79.03;;;38.90;;
36415;SDS011;22447;44.530;18.620;2023-01-04T14:50:14;80.10;;;37.40;;
36415;SDS011;22447;44.530;18.620;2023-01-04T14:52:49;81.53;;;36.67;;
36415;SDS011;22447;44.530;18.620;2023-01-04T14:55:16;81.18;;;41.33;;
36415;SDS011;22447;44.530;18.620;2023-01-04T14:57:42;82.53;;;40.80;;
36415;SDS011;22447;44.530;18.620;2023-01-04T15:00:13;82.53;;;43.72;;
36415;SDS011;22447;44.530;18.620;2023-01-04T15:02:40;110.53;;;54.42;;
36415;SDS011;22447;44.530;18.620;2023-01-04T15:05:06;104.00;;;47.53;;
36415;SDS011;22447;44.530;18.620;2023-01-04T15:07:34;104.60;;;48.20;;
36415;SDS011;22447;44.530;18.620;2023-01-04T15:10:04;98.18;;;45.13;;
36415;SDS011;22447;44.530;18.620;2023-01-04T15:12:46;85.20;;;41.35;;
36415;SDS011;22447;44.530;18.620;2023-01-04T15:15:12;92.05;;;41.58;;
36415;SDS011;22447;44.530;18.620;2023-01-04T15:17:38;108.38;;;51.80;;
36415;SDS011;22447;44.530;18.620;2023-01-04T15:20:04;106.55;;;53.30;;
36415;SDS011;22447;44.530;18.620;2023-01-04T15:22:30;89.22;;;40.92;;
36415;SDS011;22447;44.530;18.620;2023-01-04T15:24:56;79.38;;;39.00;;
36415;SDS011;22447;44.530;18.620;2023-01-04T15:27:23;80.65;;;40.47;;
36415;SDS011;22447;44.530;18.620;2023-01-04T15:29:49;86.10;;;41.92;;
36415;SDS011;22447;44.530;18.620;2023-01-04T15:32:15;97.80;;;45.85;;
36415;SDS011;22447;44.530;18.620;2023-01-04T15:34:41;87.78;;;43.28;;
36415;SDS011;22447;44.530;18.620;2023-01-04T15:37:07;106.55;;;47.85;;
36415;SDS011;22447;44.530;18.620;2023-01-04T15:39:33;90.88;;;44.17;;
36415;SDS011;22447;44.530;18.620;2023-01-04T15:41:59;94.22;;;46.88;;
36415;SDS011;22447;44.530;18.620;2023-01-04T15:44:43;104.53;;;52.38;;
36415;SDS011;22447;44.530;18.620;2023-01-04T15:47:09;117.95;;;57.35;;
36415;SDS011;22447;44.530;18.620;2023-01-04T15:49:35;103.80;;;49.72;;
36415;SDS011;22447;44.530;18.620;2023-01-04T15:52:01;65.75;;;36.83;;
36415;SDS011;22447;44.530;18.620;2023-01-04T15:54:27;76.32;;;40.70;;
36415;SDS011;22447;44.530;18.620;2023-01-04T15:56:54;69.15;;;38.20;;
36415;SDS011;22447;44.530;18.620;2023-01-04T15:59:20;84.60;;;44.50;;
36415;SDS011;22447;44.530;18.620;2023-01-04T16:01:46;77.40;;;42.42;;
36415;SDS011;22447;44.530;18.620;2023-01-04T16:04:12;67.25;;;37.95;;
36415;SDS011;22447;44.530;18.620;2023-01-04T16:06:39;70.05;;;35.95;;
36415;SDS011;22447;44.530;18.620;2023-01-04T16:09:05;73.65;;;38.95;;
36415;SDS011;22447;44.530;18.620;2023-01-04T16:11:32;99.85;;;47.78;;
36415;SDS011;22447;44.530;18.620;2023-01-04T16:13:58;82.43;;;41.75;;
36415;SDS011;22447;44.530;18.620;2023-01-04T16:16:25;121.15;;;56.95;;
36415;SDS011;22447;44.530;18.620;2023-01-04T16:18:53;145.30;;;73.15;;
36415;SDS011;22447;44.530;18.620;2023-01-04T16:21:22;113.43;;;58.15;;
36415;SDS011;22447;44.530;18.620;2023-01-04T16:23:54;156.18;;;79.90;;
36415;SDS011;22447;44.530;18.620;2023-01-04T16:26:21;243.07;;;123.88;;
36415;SDS011;22447;44.530;18.620;2023-01-04T16:28:48;280.27;;;143.63;;
36415;SDS011;22447;44.530;18.620;2023-01-04T16:31:18;330.65;;;169.38;;
36415;SDS011;22447;44.530;18.620;2023-01-04T16:33:44;319.20;;;162.25;;
36415;SDS011;22447;44.530;18.620;2023-01-04T16:36:13;271.80;;;130.00;;
36415;SDS011;22447;44.530;18.620;2023-01-04T16:38:40;238.43;;;112.43;;
36415;SDS011;22447;44.530;18.620;2023-01-04T16:41:09;185.13;;;92.82;;
36415;SDS011;22447;44.530;18.620;2023-01-04T16:43:41;184.27;;;90.05;;
36415;SDS011;22447;44.530;18.620;2023-01-04T16:46:13;202.75;;;96.15;;
36415;SDS011;22447;44.530;18.620;2023-01-04T16:48:50;197.13;;;95.93;;
36415;SDS011;22447;44.530;18.620;2023-01-04T16:51:18;166.20;;;80.43;;
36415;SDS011;22447;44.530;18.620;2023-01-04T16:53:44;172.20;;;88.65;;
36415;SDS011;22447;44.530;18.620;2023-01-04T16:56:11;149.02;;;79.25;;
36415;SDS011;22447;44.530;18.620;2023-01-04T16:58:39;203.65;;;97.95;;
36415;SDS011;22447;44.530;18.620;2023-01-04T17:01:09;150.50;;;73.13;;
36415;SDS011;22447;44.530;18.620;2023-01-04T17:03:54;392.88;;;184.45;;
36415;SDS011;22447;44.530;18.620;2023-01-04T17:06:27;243.38;;;116.30;;
36415;SDS011;22447;44.530;18.620;2023-01-04T17:08:55;140.88;;;71.00;;
36415;SDS011;22447;44.530;18.620;2023-01-04T17:11:22;173.20;;;87.05;;
36415;SDS011;22447;44.530;18.620;2023-01-04T17:13:49;192.68;;;86.63;;
36415;SDS011;22447;44.530;18.620;2023-01-04T17:16:15;189.20;;;83.75;;
36415;SDS011;22447;44.530;18.620;2023-01-04T17:18:42;160.32;;;76.82;;
36415;SDS011;22447;44.530;18.620;2023-01-04T17:21:11;522.50;;;221.43;;
36415;SDS011;22447;44.530;18.620;2023-01-04T17:23:42;140.63;;;65.18;;
36415;SDS011;22447;44.530;18.620;2023-01-04T17:26:11;157.13;;;71.20;;
36415;SDS011;22447;44.530;18.620;2023-01-04T17:28:39;139.30;;;67.13;;
36415;SDS011;22447;44.530;18.620;2023-01-04T17:31:15;146.73;;;67.55;;
36415;SDS011;22447;44.530;18.620;2023-01-04T17:33:41;138.18;;;64.38;;
36415;SDS011;22447;44.530;18.620;2023-01-04T17:36:09;148.63;;;73.03;;
36415;SDS011;22447;44.530;18.620;2023-01-04T17:38:37;196.02;;;94.57;;
36415;SDS011;22447;44.530;18.620;2023-01-04T17:41:13;232.30;;;105.43;;
36415;SDS011;22447;44.530;18.620;2023-01-04T17:43:41;426.40;;;202.75;;
36415;SDS011;22447;44.530;18.620;2023-01-04T17:46:12;489.67;;;233.23;;
36415;SDS011;22447;44.530;18.620;2023-01-04T17:48:40;475.17;;;234.55;;
36415;SDS011;22447;44.530;18.620;2023-01-04T17:51:09;450.08;;;212.82;;
36415;SDS011;22447;44.530;18.620;2023-01-04T17:53:44;269.45;;;129.63;;
36415;SDS011;22447;44.530;18.620;2023-01-04T17:56:14;178.55;;;88.72;;
36415;SDS011;22447;44.530;18.620;2023-01-04T17:58:42;250.57;;;125.78;;
36415;SDS011;22447;44.530;18.620;2023-01-04T18:01:20;383.42;;;190.45;;
36415;SDS011;22447;44.530;18.620;2023-01-04T18:03:50;299.83;;;144.70;;
36415;SDS011;22447;44.530;18.620;2023-01-04T18:06:18;283.10;;;131.20;;
36415;SDS011;22447;44.530;18.620;2023-01-04T18:08:46;318.70;;;144.60;;
36415;SDS011;22447;44.530;18.620;2023-01-04T18:11:12;433.83;;;193.57;;
36415;SDS011;22447;44.530;18.620;2023-01-04T18:13:40;300.23;;;139.02;;
36415;SDS011;22447;44.530;18.620;2023-01-04T18:16:08;277.90;;;131.30;;
36415;SDS011;22447;44.530;18.620;2023-01-04T18:18:37;295.55;;;136.02;;
36415;SDS011;22447;44.530;18.620;2023-01-04T18:21:07;222.25;;;103.93;;
36415;SDS011;22447;44.530;18.620;2023-01-04T18:23:47;271.83;;;133.55;;
36415;SDS011;22447;44.530;18.620;2023-01-04T18:26:14;358.48;;;176.65;;
36415;SDS011;22447;44.530;18.620;2023-01-04T18:28:41;352.77;;;177.77;;
36415;SDS011;22447;44.530;18.620;2023-01-04T18:31:11;335.75;;;167.02;;
36415;SDS011;22447;44.530;18.620;2023-01-04T18:33:40;329.80;;;165.85;;
36415;SDS011;22447;44.530;18.620;2023-01-04T18:36:08;294.83;;;143.75;;
36415;SDS011;22447;44.530;18.620;2023-01-04T18:38:35;331.65;;;156.98;;
36415;SDS011;22447;44.530;18.620;2023-01-04T18:41:08;295.15;;;141.05;;
36415;SDS011;22447;44.530;18.620;2023-01-04T18:43:34;335.90;;;159.95;;
36415;SDS011;22447;44.530;18.620;2023-01-04T18:46:10;306.02;;;151.55;;
36415;SDS011;22447;44.530;18.620;2023-01-04T18:48:36;312.25;;;152.30;;
36415;SDS011;22447;44.530;18.620;2023-01-04T18:51:08;298.88;;;150.02;;
36415;SDS011;22447;44.530;18.620;2023-01-04T18:53:36;329.15;;;156.25;;
36415;SDS011;22447;44.530;18.620;2023-01-04T18:56:03;360.20;;;174.98;;
36415;SDS011;22447;44.530;18.620;2023-01-04T18:58:30;347.95;;;167.73;;
36415;SDS011;22447;44.530;18.620;2023-01-04T19:01:06;387.88;;;188.55;;
36415;SDS011;22447;44.530;18.620;2023-01-04T19:03:35;278.35;;;137.80;;
36415;SDS011;22447;44.530;18.620;2023-01-04T19:06:06;280.80;;;138.93;;
36415;SDS011;22447;44.530;18.620;2023-01-04T19:08:32;301.85;;;146.52;;
36415;SDS011;22447;44.530;18.620;2023-01-04T19:10:59;359.85;;;176.48;;
36415;SDS011;22447;44.530;18.620;2023-01-04T19:13:25;402.27;;;200.40;;
36415;SDS011;22447;44.530;18.620;2023-01-04T19:15:52;366.48;;;180.90;;
36415;SDS011;22447;44.530;18.620;2023-01-04T19:18:18;363.98;;;182.15;;
36415;SDS011;22447;44.530;18.620;2023-01-04T19:20:44;345.08;;;166.00;;
36415;SDS011;22447;44.530;18.620;2023-01-04T19:23:11;360.42;;;173.65;;
36415;SDS011;22447;44.530;18.620;2023-01-04T19:25:37;395.92;;;191.32;;
36415;SDS011;22447;44.530;18.620;2023-01-04T19:28:04;501.83;;;246.00;;
36415;SDS011;22447;44.530;18.620;2023-01-04T19:30:31;546.78;;;269.77;;
36415;SDS011;22447;44.530;18.620;2023-01-04T19:32:57;525.83;;;260.92;;
36415;SDS011;22447;44.530;18.620;2023-01-04T19:35:24;496.25;;;243.90;;
36415;SDS011;22447;44.530;18.620;2023-01-04T19:37:50;427.00;;;216.15;;
36415;SDS011;22447;44.530;18.620;2023-01-04T19:40:16;356.90;;;171.88;;
36415;SDS011;22447;44.530;18.620;2023-01-04T19:42:42;449.92;;;209.23;;
36415;SDS011;22447;44.530;18.620;2023-01-04T19:45:09;525.00;;;248.15;;
36415;SDS011;22447;44.530;18.620;2023-01-04T19:47:36;496.27;;;229.07;;
36415;SDS011;22447;44.530;18.620;2023-01-04T19:50:03;448.67;;;219.80;;
36415;SDS011;22447;44.530;18.620;2023-01-04T19:52:30;377.33;;;185.93;;
36415;SDS011;22447;44.530;18.620;2023-01-04T19:54:59;364.42;;;181.63;;
36415;SDS011;22447;44.530;18.620;2023-01-04T19:57:25;351.50;;;172.57;;
36415;SDS011;22447;44.530;18.620;2023-01-04T19:59:51;323.05;;;162.50;;
36415;SDS011;22447;44.530;18.620;2023-01-04T20:02:17;337.60;;;164.77;;